Anshan, China
Current Conditions -  °F | °C
As of 8:30 PM on Saturday 20 Dec 2014 (Local Time) from ZYTX Reporting Station
Smoke Smoke  
Wind Chill: -12°   Ceiling: Unl
Heat Index: -2°   Visibility: 2.5mi
Dew Point: -6°   Wind: 4mph
Humidity: 85%   Direction: 130°SE
Pressure: 30.33"   Gusts: NA
Location:  41.12°N, 122.95°E
Report Text: ZYTX 201230Z 13002MPS 4000 FU NSC M19/M21 Q1027 NOSIG
Loading
Personal Weather Stations






























Interactive Weather Map New forecast layout! Learn more

10-Day Weather Forecast

Advertisements
Track Severe Weather on mobile